Airfield :
LOGIN :

Register | Disclaimer

   EN    FR    IT 

 










Legend :    VFR   Marginal VFR   IFR   Intensive IFR   Very Intensive IFR
Visi :
Ceiling :
>= 8 km
>= 3000ft
5 to 8 km
1000 to 3000 ft
1500m to 5 km
500 to 1000 ft
800 to 1500m
200 to 500 ft
< 800m
< 200 ft
Symbols :   Thunderstorms  Fog  Heavy snow  Heavy precipitations  Wind > 20 kt
SIGMETs :     Misc.  Thunderstorms  Icing  Turbulence  Mountain Waves  Volcanic Ashes







- Airport Elevation : 14 ft
- IATA code : BRE


EDDW - Bremen Neuenland

CURRENT METAR :
  • 170720Z 15007KT CAVOK 19/15 Q1016 NOSIG

EXPIRED METARs :
  • 170650Z 15007KT CAVOK 18/15 Q1016 NOSIG
  • 170631Z 14008KT CAVOK 17/15 Q1016 NOSIG
  • 170623Z 14010KT CAVOK 17/15 Q1016 NOSIG
  • 170620Z 14009KT CAVOK 17/15 Q1016 NOSIG
  • 170550Z 14008KT 100V160 CAVOK 17/14 Q1016 NOSIG
  • 170520Z 15004KT 110V180 CAVOK 16/14 Q1016 NOSIG
  • 170450Z 13004KT 9999 FEW044 BKN270 15/13 Q1017 NOSIG

TAF TAF EDDW
Valid from the 17 at 06:00 until the 18 at 06:00 UTC


170500Z 1706/1806 13005KT 9999 FEW035
BECMG 1707/1710 20010KT
TEMPO 1713/1721 4500 RA
TEMPO 1715/1719 SCT007 BKN013
TEMPO 1719/1806 BKN010
BECMG 1723/1802 19005KT
No reported NOTAMs for that airfield.



MET'MAP, your aeronautical weather chart ! - Copyright ORBIFLY December 2007 - Disclaimer

ORBIFLY MET'MAP TEAM :

Programming & Development : Alexandra Zaïnal
Concept & Development : Baudouin d'Aumeries
Co-Development & Prog : Marc-Olivier Méhu
Technical & hardware support : Manuel Goepfert

Contact : metmap@orbifly.com




SOURCES & CREDITS :

   NOAA